createdAt,value
2023-05-14T00:02:48.050Z,100720.72
2023-05-14T00:05:50.860Z,100719.13
2023-05-14T00:08:53.115Z,100712.66
2023-05-14T00:11:55.423Z,100702.16
2023-05-14T00:14:57.782Z,100694.06
2023-05-14T00:18:00.319Z,100704.25
2023-05-14T00:21:02.488Z,100699.72
2023-05-14T00:24:05.006Z,100697.25
2023-05-14T00:27:07.365Z,100696.50
2023-05-14T00:30:09.866Z,100697.25
2023-05-14T00:33:12.190Z,100698.06
2023-05-14T00:36:14.388Z,100696.44
2023-05-14T00:39:16.554Z,100696.44
2023-05-14T00:42:18.692Z,100692.13
2023-05-14T00:45:20.978Z,100698.06
2023-05-14T00:48:23.682Z,100694.91
2023-05-14T00:51:25.955Z,100693.81
2023-05-14T00:54:28.331Z,100695.47
2023-05-14T00:57:30.642Z,100689.53
2023-05-14T01:00:33.029Z,100690.09
2023-05-14T01:03:36.023Z,100693.81
2023-05-14T01:06:47.221Z,100687.66
2023-05-14T01:10:19.879Z,100683.06
2023-05-14T01:13:44.530Z,100676.06
2023-05-14T01:16:52.507Z,100671.72
2023-05-14T01:19:55.326Z,100664.16
2023-05-14T01:22:57.511Z,100665.56
2023-05-14T01:25:59.670Z,100659.34
2023-05-14T01:29:24.005Z,100658.28
2023-05-14T01:32:26.909Z,100646.41
2023-05-14T01:35:30.124Z,100657.16
2023-05-14T01:38:34.121Z,100648.53
2023-05-14T01:41:37.440Z,100647.94
2023-05-14T01:44:39.691Z,100639.31
2023-05-14T01:47:42.086Z,100640.59
2023-05-14T01:50:44.302Z,100637.19
2023-05-14T01:53:46.516Z,100627.00
2023-05-14T01:56:48.628Z,100614.91
2023-05-14T01:59:50.721Z,100604.81
2023-05-14T02:02:52.921Z,100606.13
2023-05-14T02:05:55.167Z,100605.38
2023-05-14T02:08:57.368Z,100609.16
2023-05-14T02:11:59.546Z,100601.56
2023-05-14T02:15:03.132Z,100587.78
2023-05-14T02:18:05.494Z,100590.72
2023-05-14T02:21:07.677Z,100593.41
2023-05-14T02:24:09.886Z,100590.16
2023-05-14T02:27:13.264Z,100600.91
2023-05-14T02:30:15.504Z,100595.03
2023-05-14T02:33:17.877Z,100587.22
2023-05-14T02:36:20.065Z,100596.09
2023-05-14T02:39:22.444Z,100593.88
2023-05-14T02:42:24.607Z,100592.28
2023-05-14T02:45:27.108Z,100592.28
2023-05-14T02:48:29.444Z,100596.09
2023-05-14T02:51:31.656Z,100590.63
2023-05-14T02:54:33.934Z,100603.34
2023-05-14T02:57:36.144Z,100580.44
2023-05-14T03:00:38.290Z,100590.72
2023-05-14T03:03:40.962Z,100593.41
2023-05-14T03:06:43.479Z,100588.84
2023-05-14T03:09:45.685Z,100572.94
2023-05-14T03:12:47.847Z,100582.09
2023-05-14T03:15:54.695Z,100572.94
2023-05-14T03:18:57.085Z,100570.81
2023-05-14T03:21:59.402Z,100572.72
2023-05-14T03:25:01.529Z,100585.75
2023-05-14T03:28:04.101Z,100589.06
2023-05-14T03:31:06.391Z,100587.22
2023-05-14T03:34:08.616Z,100592.34
2023-05-14T03:37:11.208Z,100598.28
2023-05-14T03:40:13.375Z,100589.66
2023-05-14T03:43:16.302Z,100586.97
2023-05-14T03:46:19.285Z,100581.00
2023-05-14T03:49:21.707Z,100579.41
2023-05-14T03:52:23.959Z,100576.19
2023-05-14T03:55:26.281Z,100576.31
2023-05-14T03:58:28.448Z,100573.28
2023-05-14T04:01:30.639Z,100567.34
2023-05-14T04:04:33.735Z,100564.88
2023-05-14T04:07:37.730Z,100571.31
2023-05-14T04:10:39.987Z,100576.13
2023-05-14T04:13:42.180Z,100565.69
2023-05-14T04:16:45.413Z,100564.88
2023-05-14T04:19:47.712Z,100565.63
2023-05-14T04:22:49.898Z,100557.00
2023-05-14T04:25:52.068Z,100564.88
2023-05-14T04:28:54.308Z,100568.47
2023-05-14T04:31:56.484Z,100561.22
2023-05-14T04:34:58.615Z,100556.91
2023-05-14T04:38:00.895Z,100552.56
2023-05-14T04:41:03.035Z,100542.31
2023-05-14T04:44:07.674Z,100553.31
2023-05-14T04:47:09.815Z,100556.09
2023-05-14T04:50:13.268Z,100551.78
2023-05-14T04:53:15.449Z,100552.25
2023-05-14T04:56:17.587Z,100548.75
2023-05-14T04:59:19.724Z,100545.84
2023-05-14T05:02:21.851Z,100545.84
2023-05-14T05:05:24.039Z,100543.94
2023-05-14T05:08:26.376Z,100542.31
2023-05-14T05:11:28.556Z,100540.66
2023-05-14T05:14:30.786Z,100543.72
2023-05-14T05:17:33.028Z,100544.50
2023-05-14T05:20:35.221Z,100536.44
2023-05-14T05:23:37.363Z,100544.81
2023-05-14T05:26:39.474Z,100541.34
2023-05-14T05:29:41.591Z,100530.56
2023-05-14T05:32:44.024Z,100536.53
2023-05-14T05:35:46.275Z,100539.22
2023-05-14T05:38:48.429Z,100539.22
2023-05-14T05:41:50.766Z,100540.75
2023-05-14T05:44:52.888Z,100533.53
2023-05-14T05:47:55.085Z,100534.88
2023-05-14T05:50:57.464Z,100537.31
2023-05-14T05:53:59.610Z,100527.38
2023-05-14T05:57:01.754Z,100540.09
2023-05-14T06:00:13.589Z,100526.09
2023-05-14T06:03:15.935Z,100527.38
2023-05-14T06:06:18.166Z,100538.72
2023-05-14T06:09:20.873Z,100547.59
2023-05-14T06:12:22.990Z,100545.75
2023-05-14T06:15:25.103Z,100548.44
2023-05-14T06:18:27.299Z,100545.47
2023-05-14T06:21:29.632Z,100540.94
2023-05-14T06:24:31.821Z,100536.34
2023-05-14T06:27:34.022Z,100546.31
2023-05-14T06:30:36.209Z,100553.88
2023-05-14T06:33:38.350Z,100550.63
2023-05-14T06:36:40.499Z,100554.69
2023-05-14T06:39:50.077Z,100547.19
2023-05-14T06:42:52.353Z,100536.13
2023-05-14T06:45:55.257Z,100542.03
2023-05-14T06:48:59.347Z,100541.00
2023-05-14T06:52:02.098Z,100544.19
2023-05-14T06:55:04.475Z,100531.53
2023-05-14T06:58:07.507Z,100533.75
2023-05-14T07:01:09.701Z,100525.66
2023-05-14T07:04:12.134Z,100519.53
2023-05-14T07:07:17.394Z,100519.78
2023-05-14T07:10:19.565Z,100515.28
2023-05-14T07:13:21.815Z,100504.53
2023-05-14T07:16:23.945Z,100508.91
2023-05-14T07:19:28.706Z,100503.06
2023-05-14T07:22:30.895Z,100503.34
2023-05-14T07:25:33.020Z,100501.53
2023-05-14T07:28:35.350Z,100499.97
2023-05-14T07:31:37.577Z,100501.13
2023-05-14T07:34:39.932Z,100491.47
2023-05-14T07:37:42.927Z,100488.84
2023-05-14T07:40:45.124Z,100484.56
2023-05-14T07:43:47.291Z,100495.72
2023-05-14T07:46:49.547Z,100491.81
2023-05-14T07:49:56.324Z,100485.34
2023-05-14T07:52:58.555Z,100485.16
2023-05-14T07:56:00.975Z,100483.59
2023-05-14T07:59:03.163Z,100471.22
2023-05-14T08:02:10.284Z,100477.50
2023-05-14T08:05:12.631Z,100477.16
2023-05-14T08:08:14.831Z,100469.16
2023-05-14T08:11:17.047Z,100470.75
2023-05-14T08:14:19.179Z,100459.97
2023-05-14T08:17:21.393Z,100456.50
2023-05-14T08:20:24.250Z,100456.22
2023-05-14T08:23:26.856Z,100453.00
2023-05-14T08:26:28.977Z,100444.94
2023-05-14T08:29:31.359Z,100449.28
2023-05-14T08:32:33.581Z,100447.38
2023-05-14T08:35:35.713Z,100437.69
2023-05-14T08:38:37.818Z,100436.91
2023-05-14T08:41:40.369Z,100433.66
2023-05-14T08:44:52.200Z,100433.13
2023-05-14T08:47:55.888Z,100414.00
2023-05-14T08:50:58.204Z,100418.84
2023-05-14T08:54:02.533Z,100405.38
2023-05-14T08:57:05.718Z,100399.19
2023-05-14T09:00:08.550Z,100413.53
2023-05-14T09:03:11.452Z,100413.22
2023-05-14T09:06:14.423Z,100408.34
2023-05-14T09:09:16.850Z,100408.41
2023-05-14T09:12:19.378Z,100405.94
2023-05-14T09:15:21.902Z,100412.66
2023-05-14T09:18:24.038Z,100402.94
2023-05-14T09:21:26.257Z,100402.69
2023-05-14T09:24:29.491Z,100400.50
2023-05-14T09:27:32.830Z,100411.84
2023-05-14T09:30:36.945Z,100395.13
2023-05-14T09:33:39.093Z,100381.63
2023-05-14T09:36:41.521Z,100395.38
2023-05-14T09:39:43.679Z,100396.19
2023-05-14T09:42:46.307Z,100398.09
2023-05-14T09:45:48.425Z,100388.09
2023-05-14T09:48:50.578Z,100387.81
2023-05-14T09:51:52.796Z,100372.72
2023-05-14T09:54:55.053Z,100377.03
2023-05-14T09:57:57.220Z,100370.03
2023-05-14T10:01:01.723Z,100374.59
2023-05-14T10:04:06.897Z,100372.75
2023-05-14T10:07:09.369Z,100366.53
2023-05-14T10:10:15.636Z,100360.09
2023-05-14T10:13:21.340Z,100346.63
2023-05-14T10:16:26.479Z,100327.50
2023-05-14T10:19:33.426Z,100300.31
2023-05-14T10:22:35.781Z,100291.16
2023-05-14T10:25:38.085Z,100284.22
2023-05-14T10:28:40.389Z,100280.47
2023-05-14T10:31:55.378Z,100264.31
2023-05-14T10:34:58.423Z,100270.25
2023-05-14T10:38:00.793Z,100289.13
2023-05-14T10:41:11.511Z,100303.66
2023-05-14T10:44:14.158Z,100294.72
2023-05-14T10:47:17.910Z,100299.88
2023-05-14T10:50:20.611Z,100300.09
2023-05-14T10:53:34.189Z,100294.47
2023-05-14T10:56:36.872Z,100292.03
2023-05-14T10:59:42.157Z,100292.03
2023-05-14T11:02:45.044Z,100284.75
2023-05-14T11:05:47.594Z,100286.41
2023-05-14T11:08:51.244Z,100291.53
2023-05-14T11:11:54.535Z,100282.63
2023-05-14T11:14:58.153Z,100277.22
2023-05-14T11:18:00.485Z,100268.09
2023-05-14T11:21:03.100Z,100271.31
2023-05-14T11:24:07.324Z,100270.22
2023-05-14T11:27:10.222Z,100262.38
2023-05-14T11:30:14.295Z,100267.50
2023-05-14T11:33:17.353Z,100261.81
2023-05-14T11:36:19.543Z,100267.47
2023-05-14T11:39:21.666Z,100262.09
2023-05-14T11:42:24.757Z,100264.78
2023-05-14T11:45:27.454Z,100254.50
2023-05-14T11:48:29.586Z,100259.88
2023-05-14T11:51:31.969Z,100250.16
2023-05-14T11:54:34.846Z,100259.06
2023-05-14T11:57:37.353Z,100254.19
2023-05-14T12:00:40.129Z,100249.88
2023-05-14T12:03:42.525Z,100236.38
2023-05-14T12:06:46.679Z,100244.47
2023-05-14T12:09:49.779Z,100224.28
2023-05-14T12:12:52.221Z,100217.53
2023-05-14T12:15:59.051Z,100228.03
2023-05-14T12:19:01.845Z,100225.88
2023-05-14T12:22:04.282Z,100204.81
2023-05-14T12:25:12.412Z,100203.47
2023-05-14T12:28:18.168Z,100202.94
2023-05-14T12:31:28.404Z,100198.31
2023-05-14T12:34:30.593Z,100198.84
2023-05-14T12:37:33.328Z,100193.16
2023-05-14T12:40:36.496Z,100201.00
2023-05-14T12:43:42.461Z,100188.06
2023-05-14T12:46:44.732Z,100188.06
2023-05-14T12:49:46.926Z,100200.47
2023-05-14T12:52:49.163Z,100186.97
2023-05-14T12:55:51.346Z,100189.69
2023-05-14T12:58:55.271Z,100186.16
2023-05-14T13:01:57.401Z,100175.66
2023-05-14T13:05:02.571Z,100168.13
2023-05-14T13:08:04.788Z,100156.25
2023-05-14T13:11:06.923Z,100149.78
2023-05-14T13:14:09.149Z,100149.50
2023-05-14T13:17:11.357Z,100154.09
2023-05-14T13:20:13.504Z,100157.56
2023-05-14T13:23:15.718Z,100152.44
2023-05-14T13:26:17.808Z,100141.41
2023-05-14T13:29:20.036Z,100144.09
2023-05-14T13:32:22.295Z,100130.66
2023-05-14T13:35:24.792Z,100128.78
2023-05-14T13:38:27.208Z,100116.38
2023-05-14T13:41:30.056Z,100127.13
2023-05-14T13:44:32.166Z,100115.22
2023-05-14T13:47:34.440Z,100104.72
2023-05-14T13:50:36.613Z,100111.22
2023-05-14T13:53:38.787Z,100098.25
2023-05-14T13:56:41.264Z,100099.06
2023-05-14T13:59:43.500Z,100093.16
2023-05-14T14:02:45.767Z,100091.53
2023-05-14T14:05:51.646Z,100090.44
2023-05-14T14:08:53.823Z,100089.34
2023-05-14T14:11:56.012Z,100089.63
2023-05-14T14:14:58.247Z,100089.06
2023-05-14T14:18:00.575Z,100067.53
2023-05-14T14:21:02.728Z,100080.72
2023-05-14T14:24:05.603Z,100085.28
2023-05-14T14:27:08.047Z,100085.03
2023-05-14T14:30:16.890Z,100085.81
2023-05-14T14:33:19.020Z,100089.59
2023-05-14T14:36:21.241Z,100085.81
2023-05-14T14:39:25.329Z,100080.44
2023-05-14T14:42:27.465Z,100076.91
2023-05-14T14:45:29.753Z,100078.03
2023-05-14T14:48:39.898Z,100065.34
2023-05-14T14:51:42.187Z,100058.34
2023-05-14T14:54:44.375Z,100058.06
2023-05-14T14:57:48.823Z,100059.94
2023-05-14T15:00:54.612Z,100064.50
2023-05-14T15:03:56.797Z,100049.94
2023-05-14T15:06:59.191Z,100031.66
2023-05-14T15:10:01.362Z,100024.59
2023-05-14T15:13:04.928Z,100021.66
2023-05-14T15:16:07.241Z,100016.81
2023-05-14T15:19:09.469Z,100027.84
2023-05-14T15:22:11.641Z,100016.53
2023-05-14T15:25:13.861Z,100011.91
2023-05-14T15:28:16.192Z,99998.72
2023-05-14T15:31:18.505Z,100007.09
2023-05-14T15:34:21.378Z,100003.03
2023-05-14T15:37:26.839Z,99998.19
2023-05-14T15:40:29.575Z,99999.50
2023-05-14T15:43:31.836Z,100006.72
2023-05-14T15:46:34.105Z,99997.28
2023-05-14T15:49:36.431Z,100006.72
2023-05-14T15:52:40.163Z,100001.06
2023-05-14T15:55:42.389Z,99987.34
2023-05-14T15:58:44.506Z,99979.81
2023-05-14T16:01:46.791Z,99965.00
2023-05-14T16:04:49.623Z,99947.28
2023-05-14T16:07:52.203Z,99951.84
2023-05-14T16:10:54.337Z,99934.09
2023-05-14T16:13:56.662Z,99934.88
2023-05-14T16:16:58.828Z,99937.84
2023-05-14T16:20:01.167Z,99945.63
2023-05-14T16:23:03.357Z,99959.34
2023-05-14T16:26:05.945Z,99955.31
2023-05-14T16:29:08.406Z,99954.78
2023-05-14T16:32:10.699Z,99952.38
2023-05-14T16:35:12.952Z,99953.47
2023-05-14T16:38:15.140Z,99953.22
2023-05-14T16:41:17.279Z,99944.84
2023-05-14T16:44:19.446Z,99944.59
2023-05-14T16:47:21.527Z,99928.44
2023-05-14T16:50:23.708Z,99920.31
2023-05-14T16:53:26.443Z,99922.19
2023-05-14T16:56:29.381Z,99909.28
2023-05-14T16:59:33.900Z,99909.28
2023-05-14T17:02:36.187Z,99908.19
2023-05-14T17:05:38.437Z,99909.06
2023-05-14T17:08:40.745Z,99907.16
2023-05-14T17:11:42.861Z,99910.38
2023-05-14T17:14:45.123Z,99901.78
2023-05-14T17:17:47.336Z,99897.22
2023-05-14T17:20:49.581Z,99892.38
2023-05-14T17:23:51.800Z,99880.25
2023-05-14T17:26:54.001Z,99894.00
2023-05-14T17:29:56.183Z,99879.72
2023-05-14T17:32:58.534Z,99870.31
2023-05-14T17:36:00.722Z,99880.53
2023-05-14T17:39:02.899Z,99872.47
2023-05-14T17:42:06.197Z,99868.41
2023-05-14T17:45:08.695Z,99853.88
2023-05-14T17:48:10.884Z,99845.81
2023-05-14T17:51:13.035Z,99852.00
2023-05-14T17:54:15.408Z,99847.94
2023-05-14T17:57:20.513Z,99850.91
2023-05-14T18:00:22.719Z,99854.41
2023-05-14T18:03:24.970Z,99836.16
2023-05-14T18:06:27.209Z,99818.91
2023-05-14T18:09:29.322Z,99829.44
2023-05-14T18:12:31.459Z,99829.94
2023-05-14T18:15:33.663Z,99826.22
2023-05-14T18:18:35.973Z,99817.88
2023-05-14T18:21:38.558Z,99822.69
2023-05-14T18:24:40.703Z,99824.84
2023-05-14T18:27:44.539Z,99820.00
2023-05-14T18:30:47.055Z,99832.91
2023-05-14T18:33:49.552Z,99831.84
2023-05-14T18:36:51.740Z,99836.97
2023-05-14T18:39:54.791Z,99839.91
2023-05-14T18:42:57.025Z,99835.06
2023-05-14T18:45:59.591Z,99832.63
2023-05-14T18:49:01.775Z,99835.06
2023-05-14T18:52:04.195Z,99842.63
2023-05-14T18:55:06.674Z,99839.38
2023-05-14T18:58:08.855Z,99834.00
2023-05-14T19:01:11.078Z,99833.47
2023-05-14T19:04:13.224Z,99832.13
2023-05-14T19:07:15.364Z,99845.31
2023-05-14T19:10:17.576Z,99841.56
2023-05-14T19:13:19.673Z,99832.69
2023-05-14T19:16:22.174Z,99848.84
2023-05-14T19:19:24.312Z,99824.91
2023-05-14T19:22:26.496Z,99827.84
2023-05-14T19:25:28.982Z,99831.38
2023-05-14T19:28:31.349Z,99816.00
2023-05-14T19:31:33.510Z,99817.66
2023-05-14T19:34:36.113Z,99812.81
2023-05-14T19:37:38.295Z,99813.88
2023-05-14T19:40:42.972Z,99806.63
2023-05-14T19:43:45.899Z,99796.69
2023-05-14T19:46:48.812Z,99807.69
2023-05-14T19:49:51.051Z,99811.72
2023-05-14T19:52:53.228Z,99806.63
2023-05-14T19:55:59.322Z,99799.06
2023-05-14T19:59:01.434Z,99801.50
2023-05-14T20:02:04.683Z,99809.03
2023-05-14T20:05:09.081Z,99805.53
2023-05-14T20:08:12.052Z,99804.75
2023-05-14T20:11:15.709Z,99808.50
2023-05-14T20:14:17.970Z,99797.47
2023-05-14T20:17:23.487Z,99795.31
2023-05-14T20:20:27.072Z,99798.50
2023-05-14T20:23:30.579Z,99799.59
2023-05-14T20:26:32.660Z,99795.28
2023-05-14T20:29:34.806Z,99786.94
2023-05-14T20:32:37.085Z,99788.56
2023-05-14T20:35:40.832Z,99784.53
2023-05-14T20:38:43.056Z,99775.94
2023-05-14T20:41:45.761Z,99774.31
2023-05-14T20:44:48.766Z,99780.50
2023-05-14T20:47:50.959Z,99769.47
2023-05-14T20:50:53.139Z,99766.00
2023-05-14T20:53:55.302Z,99761.97
2023-05-14T20:56:57.441Z,99752.25
2023-05-14T20:59:59.594Z,99751.19
2023-05-14T21:03:01.957Z,99739.38
2023-05-14T21:06:04.355Z,99733.44
2023-05-14T21:09:06.488Z,99727.53
2023-05-14T21:12:09.049Z,99729.69
2023-05-14T21:15:11.428Z,99736.13
2023-05-14T21:18:13.591Z,99724.56
2023-05-14T21:21:15.789Z,99721.59
2023-05-14T21:24:18.981Z,99722.97
2023-05-14T21:27:21.887Z,99722.41
2023-05-14T21:30:24.133Z,99716.75
2023-05-14T21:33:26.372Z,99716.75
2023-05-14T21:36:28.617Z,99711.66
2023-05-14T21:39:30.814Z,99700.38
2023-05-14T21:42:32.914Z,99697.13
2023-05-14T21:45:35.129Z,99680.47
2023-05-14T21:48:37.390Z,99670.78
2023-05-14T21:51:39.545Z,99657.88
2023-05-14T21:54:41.725Z,99656.00
2023-05-14T21:57:43.835Z,99658.69
2023-05-14T22:00:45.972Z,99644.16
2023-05-14T22:03:48.181Z,99647.94
2023-05-14T22:06:50.508Z,99660.81
2023-05-14T22:09:52.902Z,99664.06
2023-05-14T22:12:55.047Z,99658.97
2023-05-14T22:16:11.652Z,99656.00
2023-05-14T22:19:16.396Z,99673.47
2023-05-14T22:22:18.786Z,99674.53
2023-05-14T22:25:20.914Z,99665.94
2023-05-14T22:28:23.341Z,99665.69
2023-05-14T22:31:25.598Z,99670.78
2023-05-14T22:34:27.745Z,99673.22
2023-05-14T22:37:29.818Z,99664.09
2023-05-14T22:40:32.072Z,99664.09
2023-05-14T22:43:34.272Z,99665.69
2023-05-14T22:46:36.491Z,99658.16
2023-05-14T22:49:40.003Z,99666.22
2023-05-14T22:52:42.243Z,99661.13
2023-05-14T22:55:44.389Z,99661.66
2023-05-14T22:58:46.619Z,99668.38
2023-05-14T23:01:48.811Z,99664.09
2023-05-14T23:04:51.107Z,99666.78
2023-05-14T23:07:53.487Z,99652.25
2023-05-14T23:10:55.609Z,99648.19
2023-05-14T23:13:57.786Z,99667.88
2023-05-14T23:16:59.990Z,99664.63
2023-05-14T23:20:02.201Z,99651.19
2023-05-14T23:23:04.975Z,99640.44
2023-05-14T23:26:07.135Z,99627.00
2023-05-14T23:29:09.275Z,99621.06
2023-05-14T23:32:11.378Z,99617.56
2023-05-14T23:35:13.632Z,99622.66
2023-05-14T23:38:16.074Z,99614.59
2023-05-14T23:41:18.225Z,99600.91
2023-05-14T23:44:20.389Z,99605.19
2023-05-14T23:47:22.692Z,99610.31
2023-05-14T23:50:25.383Z,99595.28
2023-05-14T23:53:27.525Z,99584.75
2023-05-14T23:56:29.717Z,99582.06
2023-05-14T23:59:31.898Z,99594.19
